createdAt,value
2017-10-27T00:00:41.281Z,21.10
2017-10-27T00:03:08.740Z,19.30
2017-10-27T00:05:36.218Z,19.50
2017-10-27T00:08:03.689Z,21.57
2017-10-27T00:10:31.159Z,19.67
2017-10-27T00:12:59.387Z,26.90
2017-10-27T00:15:26.849Z,27.90
2017-10-27T00:17:54.327Z,26.50
2017-10-27T00:20:21.787Z,31.37
2017-10-27T00:22:49.254Z,29.70
2017-10-27T00:25:16.720Z,33.33
2017-10-27T00:27:44.974Z,33.27
2017-10-27T00:30:12.442Z,27.93
2017-10-27T00:32:39.907Z,33.17
2017-10-27T00:35:08.146Z,28.40
2017-10-27T00:37:35.612Z,33.43
2017-10-27T00:40:03.083Z,28.20
2017-10-27T00:42:32.063Z,35.30
2017-10-27T00:44:59.522Z,35.53
2017-10-27T00:47:27.090Z,34.37
2017-10-27T00:49:54.541Z,36.07
2017-10-27T00:52:22.010Z,40.10
2017-10-27T00:54:49.558Z,37.77
2017-10-27T00:57:17.026Z,31.27
2017-10-27T00:59:44.487Z,32.40
2017-10-27T01:02:11.953Z,29.13
2017-10-27T01:04:40.173Z,32.30
2017-10-27T01:07:07.641Z,31.17
2017-10-27T01:09:35.219Z,31.40
2017-10-27T01:12:02.689Z,29.27
2017-10-27T01:14:30.251Z,32.97
2017-10-27T01:16:57.808Z,34.33
2017-10-27T01:19:25.263Z,30.40
2017-10-27T01:21:52.725Z,28.90
2017-10-27T01:24:20.198Z,30.80
2017-10-27T01:26:48.421Z,28.97
2017-10-27T01:29:16.004Z,28.10
2017-10-27T01:31:43.475Z,27.73
2017-10-27T01:34:10.930Z,28.80
2017-10-27T01:36:38.407Z,30.30
2017-10-27T01:39:06.752Z,29.83
2017-10-27T01:41:34.220Z,28.27
2017-10-27T01:44:01.682Z,29.13
2017-10-27T01:46:29.907Z,26.80
2017-10-27T01:48:57.377Z,28.77
2017-10-27T01:51:24.843Z,28.47
2017-10-27T01:53:52.410Z,30.37
2017-10-27T01:56:19.871Z,34.93
2017-10-27T01:58:47.431Z,29.60
2017-10-27T02:01:14.887Z,31.03
2017-10-27T02:03:42.360Z,29.73
2017-10-27T02:06:10.583Z,30.43
2017-10-27T02:08:38.055Z,31.90
2017-10-27T02:11:05.506Z,31.70
2017-10-27T02:13:32.974Z,31.33
2017-10-27T02:16:00.430Z,29.50
2017-10-27T02:18:28.002Z,32.80
2017-10-27T02:20:55.465Z,28.67
2017-10-27T02:23:22.923Z,33.90
2017-10-27T02:25:50.384Z,28.27
2017-10-27T02:28:17.865Z,28.80
2017-10-27T02:30:46.094Z,29.30
2017-10-27T02:33:13.567Z,26.83
2017-10-27T02:35:41.027Z,28.53
2017-10-27T02:38:08.574Z,29.30
2017-10-27T02:40:36.130Z,28.33
2017-10-27T02:43:03.582Z,30.40
2017-10-27T02:45:31.046Z,31.57
2017-10-27T02:47:58.518Z,30.70
2017-10-27T02:50:25.986Z,30.83
2017-10-27T02:52:54.216Z,30.83
2017-10-27T02:55:21.795Z,29.60
2017-10-27T02:57:49.255Z,30.33
2017-10-27T03:00:16.714Z,33.37
2017-10-27T03:02:45.683Z,30.17
2017-10-27T03:05:13.150Z,29.63
2017-10-27T03:07:40.614Z,33.70
2017-10-27T03:10:08.174Z,33.37
2017-10-27T03:12:35.743Z,34.77
2017-10-27T03:15:03.207Z,37.57
2017-10-27T03:17:30.666Z,39.43
2017-10-27T03:19:58.904Z,35.10
2017-10-27T03:22:26.370Z,40.07
2017-10-27T03:24:53.853Z,36.20
2017-10-27T03:27:21.398Z,38.40
2017-10-27T03:29:48.866Z,37.43
2017-10-27T03:32:16.318Z,36.77
2017-10-27T03:34:43.864Z,37.13
2017-10-27T03:37:11.418Z,33.37
2017-10-27T03:39:38.893Z,36.80
2017-10-27T03:42:07.864Z,32.50
2017-10-27T03:44:35.435Z,29.00
2017-10-27T03:47:03.742Z,28.97
2017-10-27T03:49:31.974Z,29.37
2017-10-27T03:51:59.434Z,28.70
2017-10-27T03:54:26.913Z,28.30
2017-10-27T03:56:55.155Z,21.83
2017-10-27T03:59:22.603Z,24.63
2017-10-27T04:01:50.075Z,25.80
2017-10-27T04:04:17.645Z,24.50
2017-10-27T04:06:45.114Z,25.90
2017-10-27T04:09:12.578Z,27.27
2017-10-27T04:11:40.806Z,23.50
2017-10-27T04:14:08.262Z,28.20
2017-10-27T04:16:35.734Z,26.60
2017-10-27T04:19:03.316Z,26.80
2017-10-27T04:21:30.785Z,26.07
2017-10-27T04:23:58.322Z,23.73
2017-10-27T04:26:26.562Z,25.27
2017-10-27T04:28:54.047Z,23.10
2017-10-27T04:31:21.572Z,25.90
2017-10-27T04:33:49.026Z,27.30
2017-10-27T04:36:16.491Z,26.33
2017-10-27T04:38:43.952Z,25.40
2017-10-27T04:41:11.415Z,26.03
2017-10-27T04:43:38.903Z,24.43
2017-10-27T04:46:06.363Z,22.80
2017-10-27T04:48:33.830Z,24.80
2017-10-27T04:51:01.290Z,25.90
2017-10-27T04:53:29.546Z,24.53
2017-10-27T04:55:57.008Z,24.83
2017-10-27T04:58:24.474Z,24.30
2017-10-27T05:00:52.022Z,21.70
2017-10-27T05:03:19.491Z,24.40
2017-10-27T05:05:46.948Z,24.97
2017-10-27T05:08:14.416Z,24.60
2017-10-27T05:10:42.663Z,26.13
2017-10-27T05:13:10.136Z,25.27
2017-10-27T05:15:37.594Z,22.20
2017-10-27T05:18:11.604Z,22.47
2017-10-27T05:20:45.539Z,22.30
2017-10-27T05:23:19.610Z,20.33
2017-10-27T05:25:47.081Z,20.27
2017-10-27T05:28:14.631Z,22.10
2017-10-27T05:30:42.187Z,20.37
2017-10-27T05:33:09.675Z,18.67
2017-10-27T05:35:38.015Z,20.77
2017-10-27T05:38:05.570Z,20.50
2017-10-27T05:40:33.034Z,20.93
2017-10-27T05:43:00.586Z,22.07
2017-10-27T05:45:28.053Z,24.17
2017-10-27T05:47:55.509Z,27.37
2017-10-27T05:50:22.975Z,25.60
2017-10-27T05:52:50.446Z,27.20
2017-10-27T05:55:18.679Z,27.70
2017-10-27T05:57:46.259Z,29.13
2017-10-27T06:00:13.730Z,29.17
2017-10-27T06:02:41.964Z,26.87
2017-10-27T06:05:09.426Z,27.10
2017-10-27T06:07:37.004Z,22.50
2017-10-27T06:10:04.471Z,25.63
2017-10-27T06:12:31.927Z,22.47
2017-10-27T06:14:59.407Z,18.60
2017-10-27T06:17:27.631Z,10.70
2017-10-27T06:19:55.104Z,7.53
2017-10-27T06:22:22.561Z,7.60
2017-10-27T06:24:50.032Z,8.17
2017-10-27T06:27:18.262Z,9.30
2017-10-27T06:29:45.735Z,8.27
2017-10-27T06:32:13.198Z,9.87
2017-10-27T06:34:40.666Z,10.53
2017-10-27T06:37:08.131Z,12.10
2017-10-27T06:39:35.603Z,13.87
2017-10-27T06:42:03.819Z,11.87
2017-10-27T06:44:31.442Z,13.43
2017-10-27T06:46:59.667Z,13.27
2017-10-27T06:49:27.138Z,13.25
2017-10-27T06:51:54.617Z,11.88
2017-10-27T06:54:22.848Z,13.20
2017-10-27T06:56:50.310Z,15.00
2017-10-27T06:59:17.783Z,14.90
2017-10-27T07:01:45.250Z,15.23
2017-10-27T07:04:12.719Z,15.05
2017-10-27T07:06:40.967Z,14.02
2017-10-27T07:09:08.444Z,14.10
2017-10-27T07:11:36.692Z,16.63
2017-10-27T07:14:04.166Z,13.53
2017-10-27T07:16:31.721Z,15.23
2017-10-27T07:18:59.181Z,10.70
2017-10-27T07:21:26.643Z,13.97
2017-10-27T07:23:54.113Z,14.60
2017-10-27T07:26:22.374Z,14.57
2017-10-27T07:28:50.755Z,10.30
2017-10-27T07:31:18.221Z,12.07
2017-10-27T07:33:45.758Z,12.70
2017-10-27T07:36:13.233Z,11.37
2017-10-27T07:38:40.702Z,12.20
2017-10-27T07:41:08.940Z,9.10
2017-10-27T07:43:36.402Z,11.93
2017-10-27T07:46:03.967Z,11.65
2017-10-27T07:48:31.431Z,13.40
2017-10-27T07:50:58.912Z,11.60
2017-10-27T07:53:27.145Z,11.68
2017-10-27T07:55:54.618Z,12.68
2017-10-27T07:58:22.092Z,12.63
2017-10-27T08:00:50.354Z,12.35
2017-10-27T08:03:17.814Z,10.67
2017-10-27T08:05:45.279Z,13.33
2017-10-27T08:08:13.518Z,10.30
2017-10-27T08:10:40.987Z,12.47
2017-10-27T08:13:08.454Z,12.00
2017-10-27T08:15:35.920Z,12.02
2017-10-27T08:18:03.396Z,11.83
2017-10-27T08:20:31.642Z,11.53
2017-10-27T08:22:59.201Z,11.63
2017-10-27T08:25:26.762Z,11.43
2017-10-27T08:27:54.314Z,11.03
2017-10-27T08:30:21.783Z,13.50
2017-10-27T08:32:49.257Z,12.30
2017-10-27T08:35:17.515Z,11.35
2017-10-27T08:37:44.980Z,12.90
2017-10-27T08:40:12.433Z,9.73
2017-10-27T08:42:39.899Z,10.23
2017-10-27T08:45:08.122Z,9.67
2017-10-27T08:47:35.710Z,9.40
2017-10-27T08:50:03.165Z,9.13
2017-10-27T08:52:30.617Z,8.57
2017-10-27T08:54:58.178Z,8.50
2017-10-27T08:57:25.738Z,9.40
2017-10-27T08:59:53.975Z,9.48
2017-10-27T09:02:21.443Z,9.05
2017-10-27T09:04:48.904Z,8.80
2017-10-27T09:07:16.366Z,7.53
2017-10-27T09:09:43.837Z,7.53
2017-10-27T09:12:11.299Z,8.53
2017-10-27T09:14:38.766Z,8.90
2017-10-27T09:17:06.214Z,8.03
2017-10-27T09:19:33.674Z,8.53
2017-10-27T09:22:01.132Z,7.40
2017-10-27T09:24:28.586Z,7.00
2017-10-27T09:26:56.050Z,7.73
2017-10-27T09:29:25.018Z,7.67
2017-10-27T09:31:52.482Z,8.47
2017-10-27T09:34:19.942Z,7.80
2017-10-27T09:36:47.398Z,6.27
2017-10-27T09:39:14.854Z,5.80
2017-10-27T09:41:42.301Z,5.40
2017-10-27T09:44:09.767Z,6.13
2017-10-27T09:46:37.222Z,5.50
2017-10-27T09:49:04.678Z,4.90
2017-10-27T09:51:32.129Z,6.37
2017-10-27T09:53:59.610Z,5.13
2017-10-27T09:56:27.058Z,4.97
2017-10-27T09:58:54.518Z,4.87
2017-10-27T10:01:21.983Z,5.17
2017-10-27T10:03:49.431Z,5.17
2017-10-27T10:06:16.887Z,4.33
2017-10-27T10:08:44.338Z,4.93
2017-10-27T10:11:11.903Z,4.10
2017-10-27T10:13:39.360Z,5.77
2017-10-27T10:16:06.911Z,4.53
2017-10-27T10:18:34.366Z,4.30
2017-10-27T10:21:01.833Z,4.70
2017-10-27T10:23:29.286Z,3.80
2017-10-27T10:25:56.750Z,3.73
2017-10-27T10:28:24.978Z,4.20
2017-10-27T10:30:52.445Z,3.97
2017-10-27T10:33:19.899Z,3.80
2017-10-27T10:35:47.409Z,4.60
2017-10-27T10:38:14.841Z,4.03
2017-10-27T10:40:42.314Z,3.07
2017-10-27T10:43:09.762Z,3.30
2017-10-27T10:45:37.222Z,3.60
2017-10-27T10:48:04.678Z,2.97
2017-10-27T10:50:32.133Z,3.93
2017-10-27T10:53:00.375Z,3.40
2017-10-27T10:55:27.866Z,4.27
2017-10-27T10:57:55.331Z,3.63
2017-10-27T11:00:23.553Z,3.43
2017-10-27T11:02:51.047Z,3.23
2017-10-27T11:05:18.502Z,3.03
2017-10-27T11:07:46.036Z,4.00
2017-10-27T11:10:13.489Z,2.83
2017-10-27T11:12:40.954Z,3.10
2017-10-27T11:15:08.434Z,2.97
2017-10-27T11:17:37.413Z,3.00
2017-10-27T11:20:04.870Z,2.83
2017-10-27T11:22:32.338Z,2.63
2017-10-27T11:24:59.801Z,3.20
2017-10-27T11:27:27.262Z,4.50
2017-10-27T11:29:54.718Z,2.43
2017-10-27T11:32:22.185Z,2.90
2017-10-27T11:34:49.630Z,2.67
2017-10-27T11:37:17.099Z,3.03
2017-10-27T11:39:44.647Z,2.63
2017-10-27T11:42:12.102Z,3.03
2017-10-27T11:44:39.560Z,2.53
2017-10-27T11:47:07.032Z,2.87
2017-10-27T11:49:34.486Z,2.50
2017-10-27T11:52:01.936Z,2.50
2017-10-27T11:54:29.391Z,2.40
2017-10-27T11:56:57.615Z,2.70
2017-10-27T11:59:25.082Z,2.90
2017-10-27T12:01:52.535Z,2.77
2017-10-27T12:04:20.000Z,3.10
2017-10-27T12:06:47.451Z,2.50
2017-10-27T12:09:14.920Z,2.30
2017-10-27T12:11:42.378Z,2.50
2017-10-27T12:14:09.837Z,2.50
2017-10-27T12:16:37.314Z,2.33
2017-10-27T12:19:04.777Z,2.87
2017-10-27T12:21:32.230Z,3.03
2017-10-27T12:23:59.698Z,2.53
2017-10-27T12:26:27.919Z,2.13
2017-10-27T12:28:55.386Z,1.83
2017-10-27T12:31:22.854Z,2.00
2017-10-27T12:33:50.321Z,2.20
2017-10-27T12:36:17.779Z,2.27
2017-10-27T12:38:45.247Z,2.30
2017-10-27T12:41:12.698Z,2.40
2017-10-27T12:43:40.158Z,2.00
2017-10-27T12:46:07.609Z,2.33
2017-10-27T12:48:35.159Z,2.03
2017-10-27T12:51:02.610Z,1.83
2017-10-27T12:53:30.179Z,1.77
2017-10-27T12:55:57.733Z,1.60
2017-10-27T12:58:25.186Z,1.43
2017-10-27T13:00:52.758Z,1.20
2017-10-27T13:03:20.211Z,1.30
2017-10-27T13:05:47.762Z,1.53
2017-10-27T13:08:15.222Z,1.40
2017-10-27T13:10:42.683Z,1.30
2017-10-27T13:13:10.138Z,1.10
2017-10-27T13:15:37.698Z,1.30
2017-10-27T13:18:05.158Z,1.33
2017-10-27T13:20:32.619Z,1.80
2017-10-27T13:23:00.075Z,1.40
2017-10-27T13:25:27.548Z,1.30
2017-10-27T13:27:54.999Z,1.20
2017-10-27T13:30:22.457Z,1.13
2017-10-27T13:32:49.907Z,1.40
2017-10-27T13:35:17.382Z,1.40
2017-10-27T13:37:45.594Z,1.93
2017-10-27T13:40:13.055Z,1.40
2017-10-27T13:42:40.514Z,1.27
2017-10-27T13:45:07.973Z,1.60
2017-10-27T13:47:35.428Z,1.40
2017-10-27T13:50:02.888Z,1.27
2017-10-27T13:52:30.348Z,1.50
2017-10-27T13:54:57.812Z,1.97
2017-10-27T13:57:25.266Z,1.30
2017-10-27T13:59:52.730Z,1.30
2017-10-27T14:02:20.190Z,1.40
2017-10-27T14:04:47.645Z,1.57
2017-10-27T14:07:15.107Z,2.03
2017-10-27T14:09:42.669Z,1.97
2017-10-27T14:12:10.137Z,1.50
2017-10-27T14:14:37.686Z,1.90
2017-10-27T14:17:05.151Z,1.60
2017-10-27T14:19:32.602Z,1.50
2017-10-27T14:22:00.069Z,2.07
2017-10-27T14:24:27.526Z,2.40
2017-10-27T14:26:54.987Z,1.53
2017-10-27T14:29:22.535Z,1.20
2017-10-27T14:31:50.092Z,1.37
2017-10-27T14:34:17.546Z,1.47
2017-10-27T14:36:45.008Z,1.50
2017-10-27T14:39:13.963Z,1.60
2017-10-27T14:41:41.425Z,1.60
2017-10-27T14:44:08.887Z,1.67
2017-10-27T14:46:36.349Z,1.40
2017-10-27T14:49:03.822Z,1.70
2017-10-27T14:51:31.297Z,1.60
2017-10-27T14:53:59.554Z,1.40
2017-10-27T14:56:27.781Z,1.70
2017-10-27T14:58:55.229Z,1.33
2017-10-27T15:01:22.690Z,1.60
2017-10-27T15:03:50.135Z,1.80
2017-10-27T15:06:17.595Z,1.70
2017-10-27T15:08:45.119Z,1.70
2017-10-27T15:11:12.574Z,1.77
2017-10-27T15:13:40.116Z,2.10
2017-10-27T15:16:07.599Z,2.63
2017-10-27T15:18:35.052Z,1.67
2017-10-27T15:21:02.522Z,1.77
2017-10-27T15:23:30.751Z,2.20
2017-10-27T15:25:58.214Z,1.60
2017-10-27T15:28:25.790Z,1.70
2017-10-27T15:30:53.242Z,1.80
2017-10-27T15:33:20.711Z,1.80
2017-10-27T15:35:48.166Z,1.90
2017-10-27T15:38:15.627Z,2.10
2017-10-27T15:40:43.902Z,1.93
2017-10-27T15:43:11.362Z,1.80
2017-10-27T15:45:38.818Z,2.40
2017-10-27T15:48:06.364Z,2.43
2017-10-27T15:50:33.824Z,2.30
2017-10-27T15:53:01.297Z,1.97
2017-10-27T15:55:29.551Z,1.90
2017-10-27T15:57:57.115Z,2.63
2017-10-27T16:00:24.558Z,2.53
2017-10-27T16:02:52.034Z,2.97
2017-10-27T16:05:19.484Z,2.80
2017-10-27T16:07:46.954Z,26.47
2017-10-27T16:10:15.205Z,22.73
2017-10-27T16:12:42.684Z,7.78
2017-10-27T16:15:10.222Z,4.60
2017-10-27T16:17:37.721Z,6.00
2017-10-27T16:20:05.937Z,5.90
2017-10-27T16:22:33.400Z,2.72
2017-10-27T16:25:00.863Z,2.75
2017-10-27T16:27:28.327Z,2.50
2017-10-27T16:29:56.567Z,3.30
2017-10-27T16:32:24.023Z,3.50
2017-10-27T16:34:51.610Z,3.05
2017-10-27T16:37:19.064Z,2.60
2017-10-27T16:39:46.531Z,3.15
2017-10-27T16:42:13.975Z,3.33
2017-10-27T16:44:41.439Z,2.80
2017-10-27T16:47:08.890Z,3.70
2017-10-27T16:49:36.462Z,2.92
2017-10-27T16:52:03.918Z,3.12
2017-10-27T16:54:31.475Z,2.65
2017-10-27T16:56:58.931Z,3.10
2017-10-27T16:59:26.534Z,2.90
2017-10-27T17:01:54.053Z,3.17
2017-10-27T17:04:21.606Z,3.47
2017-10-27T17:06:49.150Z,2.92
2017-10-27T17:09:16.610Z,2.80
2017-10-27T17:11:44.067Z,3.77
2017-10-27T17:14:11.527Z,4.80
2017-10-27T17:16:38.996Z,4.40
2017-10-27T17:19:06.458Z,3.90
2017-10-27T17:21:33.909Z,5.97
2017-10-27T17:24:01.378Z,6.20
2017-10-27T17:26:28.834Z,6.10
2017-10-27T17:28:56.290Z,6.87
2017-10-27T17:31:24.553Z,6.80
2017-10-27T17:33:52.019Z,7.18
2017-10-27T17:36:19.486Z,4.80
2017-10-27T17:38:46.941Z,4.90
2017-10-27T17:41:15.183Z,5.05
2017-10-27T17:43:42.642Z,5.68
2017-10-27T17:46:10.122Z,5.00
2017-10-27T17:48:37.674Z,4.57
2017-10-27T17:51:05.139Z,6.10
2017-10-27T17:53:32.694Z,6.30
2017-10-27T17:56:00.169Z,6.10
2017-10-27T17:58:27.622Z,7.67
2017-10-27T18:00:55.870Z,6.37
2017-10-27T18:03:23.343Z,7.35
2017-10-27T18:05:51.621Z,7.90
2017-10-27T18:08:19.892Z,7.18
2017-10-27T18:10:47.362Z,6.67
2017-10-27T18:13:14.805Z,5.97
2017-10-27T18:15:42.298Z,5.00
2017-10-27T18:18:09.758Z,4.97
2017-10-27T18:20:37.209Z,4.47
2017-10-27T18:23:05.439Z,3.97
2017-10-27T18:25:32.900Z,6.53
2017-10-27T18:28:00.358Z,5.53
2017-10-27T18:30:27.827Z,6.00
2017-10-27T18:32:55.388Z,7.23
2017-10-27T18:35:22.838Z,7.30
2017-10-27T18:37:50.302Z,7.70
2017-10-27T18:40:17.758Z,7.10
2017-10-27T18:42:45.223Z,6.30
2017-10-27T18:45:13.445Z,7.00
2017-10-27T18:47:40.930Z,6.53
2017-10-27T18:50:08.387Z,6.60
2017-10-27T18:52:35.849Z,5.00
2017-10-27T18:55:03.309Z,5.40
2017-10-27T18:57:30.777Z,6.32
2017-10-27T18:59:58.229Z,5.67
2017-10-27T19:02:25.716Z,8.80
2017-10-27T19:04:53.233Z,6.10
2017-10-27T19:07:20.702Z,6.32
2017-10-27T19:09:48.246Z,6.90
2017-10-27T19:12:15.709Z,8.20
2017-10-27T19:14:43.175Z,7.23
2017-10-27T19:17:10.633Z,7.62
2017-10-27T19:19:38.172Z,5.67
2017-10-27T19:22:05.639Z,4.63
2017-10-27T19:24:33.199Z,6.90
2017-10-27T19:27:00.655Z,5.67
2017-10-27T19:29:28.214Z,4.80
2017-10-27T19:31:55.672Z,4.17
2017-10-27T19:34:23.143Z,4.97
2017-10-27T19:36:51.365Z,4.18
2017-10-27T19:39:18.838Z,5.40
2017-10-27T19:41:46.323Z,4.50
2017-10-27T19:44:13.778Z,4.07
2017-10-27T19:46:41.337Z,4.10
2017-10-27T19:49:08.799Z,5.37
2017-10-27T19:51:36.338Z,5.27
2017-10-27T19:54:03.806Z,7.00
2017-10-27T19:56:31.266Z,6.43
2017-10-27T19:58:58.724Z,7.70
2017-10-27T20:01:26.171Z,7.10
2017-10-27T20:03:53.640Z,5.68
2017-10-27T20:06:21.083Z,6.10
2017-10-27T20:08:48.562Z,7.20
2017-10-27T20:11:16.785Z,7.20
2017-10-27T20:13:44.238Z,6.30
2017-10-27T20:16:11.737Z,7.67
2017-10-27T20:18:39.289Z,6.90
2017-10-27T20:21:06.758Z,6.00
2017-10-27T20:23:34.209Z,6.30
2017-10-27T20:26:01.667Z,5.10
2017-10-27T20:28:29.120Z,6.37
2017-10-27T20:30:57.395Z,5.87
2017-10-27T20:33:24.852Z,7.12
2017-10-27T20:35:52.307Z,7.00
2017-10-27T20:38:19.766Z,6.32
2017-10-27T20:40:47.229Z,6.00
2017-10-27T20:43:14.787Z,6.07
2017-10-27T20:45:42.330Z,5.57
2017-10-27T20:48:09.783Z,5.45
2017-10-27T20:50:37.246Z,4.65
2017-10-27T20:53:04.709Z,5.18
2017-10-27T20:55:32.168Z,4.87
2017-10-27T20:57:59.631Z,5.07
2017-10-27T21:00:27.095Z,5.70
2017-10-27T21:02:55.323Z,5.50
2017-10-27T21:05:22.779Z,5.53
2017-10-27T21:07:50.237Z,6.25
2017-10-27T21:10:17.710Z,5.53
2017-10-27T21:12:45.167Z,5.50
2017-10-27T21:15:12.632Z,6.53
2017-10-27T21:17:40.096Z,7.00
2017-10-27T21:20:07.537Z,6.93
2017-10-27T21:22:35.010Z,6.85
2017-10-27T21:25:02.474Z,8.63
2017-10-27T21:27:29.939Z,8.00
2017-10-27T21:29:58.160Z,7.37
2017-10-27T21:32:25.656Z,6.47
2017-10-27T21:34:53.106Z,6.05
2017-10-27T21:37:20.565Z,7.68
2017-10-27T21:39:48.034Z,7.82
2017-10-27T21:42:15.498Z,7.10
2017-10-27T21:44:43.722Z,8.30
2017-10-27T21:47:11.188Z,7.75
2017-10-27T21:49:38.654Z,7.32
2017-10-27T21:52:06.118Z,8.00
2017-10-27T21:54:33.576Z,6.90
2017-10-27T21:57:01.043Z,5.82
2017-10-27T22:02:37.750Z,11.88
2017-10-27T22:05:05.183Z,8.98
2017-10-27T22:07:32.646Z,7.20
2017-10-27T22:10:00.199Z,5.60
2017-10-27T22:12:27.659Z,6.47
2017-10-27T22:14:55.126Z,6.78
2017-10-27T22:17:22.591Z,7.32
2017-10-27T22:19:50.814Z,6.37
2017-10-27T22:22:18.410Z,7.00
2017-10-27T22:24:45.863Z,6.75
2017-10-27T22:27:13.318Z,8.18
2017-10-27T22:29:40.878Z,7.18
2017-10-27T22:32:08.444Z,7.82
2017-10-27T22:34:35.918Z,8.45
2017-10-27T22:37:04.144Z,7.78
2017-10-27T22:39:31.614Z,7.97
2017-10-27T22:41:59.090Z,9.07
2017-10-27T22:44:26.649Z,8.00
2017-10-27T22:46:54.103Z,8.75
2017-10-27T22:49:21.655Z,6.57
2017-10-27T22:51:49.124Z,8.75
2017-10-27T22:54:16.583Z,8.25
2017-10-27T22:56:44.039Z,7.95
2017-10-27T22:59:11.503Z,8.00
2017-10-27T23:01:38.958Z,8.43
2017-10-27T23:04:06.501Z,8.32
2017-10-27T23:06:33.963Z,7.93
2017-10-27T23:09:01.430Z,8.35
2017-10-27T23:11:28.978Z,8.05
2017-10-27T23:13:56.438Z,8.23
2017-10-27T23:16:23.898Z,8.98
2017-10-27T23:18:51.357Z,7.57
2017-10-27T23:21:18.819Z,7.12
2017-10-27T23:23:46.279Z,8.57
2017-10-27T23:26:14.543Z,7.35
2017-10-27T23:28:41.998Z,7.22
2017-10-27T23:31:09.462Z,7.07
2017-10-27T23:33:36.926Z,7.85
2017-10-27T23:36:05.180Z,7.37
2017-10-27T23:38:33.406Z,7.07
2017-10-27T23:41:00.871Z,7.03
2017-10-27T23:43:28.335Z,6.37
2017-10-27T23:45:55.790Z,7.00
2017-10-27T23:48:23.250Z,6.45
2017-10-27T23:50:50.706Z,6.68
2017-10-27T23:53:18.166Z,6.07
2017-10-27T23:55:45.658Z,6.35
2017-10-27T23:58:13.115Z,6.10
